Rushford, MN (55971)

12:29 AM CST on December 10, 2016 (GMT -0600)
500 Nannestad Lane | | Change Station
Active Advisory: Winter Weather Advisory

Elev 728 ft 43.81 °N, 91.75 °W | Updated 26 seconds ago

Overcast
Overcast
13.5 °F
Feels Like 4 °F
N
6.0
Wind Variable Wind from NNW

Today
High -- | Low -- °F
--% Chance of Precip.
Yesterday
High -- | Low -- °F
Precip. -- in
Pressure 30.51 in
Visibility 10.0 miles
Clouds Mostly Cloudy 4500 ft
Overcast 5000 ft
Windchill 4 °F
Dew Point 10 °F
Humidity 86%
Rainfall 0.00 in
Snow Depth Not available.
7:30 AM 4:29 PM
Waxing Gibbous, 81% visible
METAR KONA 100613Z AUTO 29006KT 10SM BKN045 OVC050 M10/M14 A3051 RMK AO2
Pressure 30.51 in
Visibility 10.0 miles
Clouds Mostly Cloudy 4500 ft
Overcast 5000 ft
Windchill 4 °F
Dew Point 10 °F
Humidity 86%
Rainfall 0.00 in
Snow Depth Not available.
7:30 AM 4:29 PM
Waxing Gibbous, 81% visible
METAR KONA 100613Z AUTO 29006KT 10SM BKN045 OVC050 M10/M14 A3051 RMK AO2

10-Day Weather Forecast

Almanac

Astronomy

Dec. 10, 2016 Rise Set
Actual Time
Civil Twilight
Nautical Twilight
Astronomical Twilight
Moon
Length of Visible Light
Length of Day
Tomorrow will be .
, % of the Moon is Illuminated

Today's Extremes

State Highs State Lows

Community

WunderPhotos

Upload Photos

1,956,527 photos uploaded!

WunderBlog® & News

Nearby

Air Quality

  Air Quality AQ Index Pollutant
Not available.

Snow Depth

Station Depth Elevation

Earthquake Activity

City Distance Mag. Time & Date
Minimum magnitude displayed is 2.5.

Coastal Water Temperatures

Place Temperature

Stations

Nearby Weather Stations

Station Location Temp. Windchill Dew Point Humidity Wind Precip. Elev Updated Type
                   

Watches & Warnings

Winter Weather Advisory
Issued: 7:56 PM CST Dec. 9, 2016 – National Weather Service

... Winter Weather Advisory remains in effect from 2 PM Saturday
to 6 PM CST Sunday...

* expect snow to develop Saturday afternoon and then diminish
Sunday afternoon.

* The heaviest snowfall rates will occur between midnight and 9
am Sunday.

* Total snow accumulations of 5 to 8 inches are expected... with
localized higher amounts possible.

* Look for reduced visibilities at times.

* Plan on difficult driving conditions.

Precautionary/preparedness actions...

A Winter Weather Advisory for snow means periods of snow will
cause primarily travel difficulties. Be prepared for snow covered
roads and limited visibilities... and use caution while driving.
The latest Road conditions for the state you are calling from can
be obtained by calling 5 1 1.